Center Banner
 

Harrisburg Half Marathon & 3-Bridges 5k

Overall Finish List

September 10, 2017



Place Name City Bib No Age Gender Age Group Div Total Time Pace
1 ALEXANDER HAMPEL HUMMELSTOWN PA 287 24 M 1 Top Fin 1 1:10:04.64 5:21/M
2 ZACH BARKER WYOMISSING PA 65 25 M 1 25-29 1 1:11:08.47 5:26/M
3 BRIAN ROSENBERG MECHANICSBURG PA 547 39 M 1 35-39 1 1:12:52.47 5:34/M
4 C FRED JOSLYN 335 33 M 1 30-34 1 1:15:47.34 5:47/M
5 MIKE CARRIGLITTO 790 42 M 1 40-44 1 1:18:28.11 5:59/M
6 JESUS MUNIZ PHOENIXVILLE PA 472 46 M 1 45-49 1 1:20:54.95 6:11/M
7 JOSEPH PERRY MECHANICSBURG PA 508 27 M 2 25-29 1 1:21:27.30 6:13/M
8 JACOB EATON-HALL 788 25 M 3 25-29 1 1:23:02.05 6:20/M
9 EMILY HULME EASTON PA 326 33 F 1 Top Fin 1 1:23:19.92 6:22/M
10 EDWARD SCHROLL BLOOMFIELD NJ 570 32 M 2 30-34 1 1:25:06.93 6:30/M
11 CRAIG SCHROLL HARRISBURG PA 569 32 M 3 30-34 1 1:25:08.79 6:30/M
12 KURT DEGOEDE MOUNT JOY PA 183 48 M 2 45-49 1 1:25:47.12 6:33/M
13 LINDELL SERVIS 633 31 M 4 30-34 1 1:26:41.86 6:37/M
14 TIMOTHY EBERSOLE 819 36 M 2 35-39 1 1:26:56.53 6:38/M
15 KEVIN SAGEN CAMP HILL PA 553 41 M 1 40-44 1 1:27:03.30 6:39/M
16 JON FOX HARRISBURG PA 239 39 M 3 35-39 1 1:27:15.24 6:40/M
17 GREG JOHNSON 782 25 M 4 25-29 1 1:27:16.19 6:40/M
18 ERIC SWEENEY 789 40 M 2 40-44 1 1:27:20.03 6:40/M
19 WHITNEY HEYDENREICH DANVILLE PA 307 29 F 1 25-29 1 1:29:15.68 6:49/M
20 SARAH DELIA 818 31 F 1 30-34 1 1:29:18.48 6:49/M
21 ALBERT BRULO HARRISBURG PA 119 59 M 1 55-59 1 1:29:21.93 6:49/M
22 GLENN NEWTON MECHANICSBURG PA 482 46 M 3 45-49 1 1:30:05.39 6:53/M
23 MATTHEW JOHNSON 816 26 M 5 25-29 1 1:30:43.76 6:55/M
24 STEVE DECKER NEW CUMBERLAND PA 182 34 M 5 30-34 1 1:31:00.69 6:57/M
25 BRETT SHETTEL DILLSBURG PA 586 40 M 3 40-44 1 1:31:16.49 6:58/M
26 DON ROTANZ LINE LEXINGTON PA 548 52 M 1 50-54 1 1:31:20.58 6:58/M
27 BEN MECK ARDMORE PA 435 30 M 6 30-34 1 1:31:39.19 7:00/M
28 ANDREW FISLER DILLSBURG PA 234 45 M 4 45-49 1 1:31:43.33 7:00/M
29 BOB PORAMBO ELIZABETHTOWN PA 519 37 M 4 35-39 1 1:31:57.63 7:01/M
30 AMY MCCOY MUNCY PA 427 35 F 1 35-39 1 1:31:59.27 7:01/M
31 JESSE SMITH DILLSBURG PA 604 44 M 4 40-44 1 1:32:19.81 7:03/M
32 SCOTT LAIRD MECHANICSBURG PA 376 36 M 5 35-39 1 1:32:26.57 7:03/M
33 JASON STINE 792 39 M 6 35-39 1 1:32:37.09 7:04/M
34 SEAN DARRAH MIDDLETOWN PA 175 28 M 6 25-29 1 1:32:39.00 7:04/M
35 DOMINIC COLARDO HARRISBURG PA 153 36 M 7 35-39 1 1:32:54.42 7:05/M
36 DAVID MCCONNELL WEST POINT NY 426 47 M 5 45-49 1 1:33:30.94 7:08/M
37 KATIE WILLIAMS DANVILLE PA 697 36 F 2 35-39 1 1:33:44.25 7:09/M
38 JEN HEAGY LANSDALE PA 298 34 F 2 30-34 1 1:34:15.14 7:12/M
39 TIMOTHY RARICK CARLISLE PA 526 40 M 5 40-44 1 1:34:26.19 7:13/M
40 MIKE REBUCK MECHANICSBURG PA 529 50 M 2 50-54 1 1:34:42.82 7:14/M
41 GEOFF ALAISHUSKI NORRISTOWN PA 41 41 M 6 40-44 1 1:34:44.62 7:14/M
42 KELLY LEIGHTON HARRISBURG PA 395 31 F 3 30-34 1 1:34:46.40 7:14/M
43 JOHN CLINE 821 51 M 3 50-54 1 1:35:09.14 7:16/M
44 LUKE MARKIEWIC CANONSBURG PA 417 33 M 7 30-34 1 1:35:23.45 7:17/M
45 ERIC FISLER MECHANICSBURG PA 235 49 M 6 45-49 1 1:35:30.84 7:17/M
46 CRAIG HETRICK BALTIMORE MD 306 51 M 4 50-54 1 1:35:37.48 7:18/M
47 TAMARA PAVLOV MONTOURSVILLE PA 503 29 F 2 25-29 1 1:35:42.27 7:18/M
48 BRENT ZEIDERS ETTERS PA 721 44 M 7 40-44 1 1:35:47.16 7:19/M
49 JARROD ZELINSKE HARRISBURG PA 723 37 M 8 35-39 1 1:35:55.15 7:19/M
50 KURT DANNERTH SCWENKSVILLE PA 174 45 M 7 45-49 1 1:36:17.79 7:21/M
51 BRYAN JUDY MECHANICSBURG PA 336 36 M 9 35-39 1 1:36:26.81 7:22/M
52 CHRIS HOOVER CAMP HILL PA 322 51 M 5 50-54 1 1:36:36.69 7:22/M
53 TIMOTHY BEAVER YORK PA 76 42 M 8 40-44 1 1:36:53.23 7:24/M
54 BRYANT SIEGFRIED FOREST HILL MD 593 34 M 8 30-34 1 1:37:12.14 7:25/M
55 EMMA CRIST ALLISON PARK PA 163 27 F 3 25-29 1 1:37:16.46 7:25/M
56 KYLE KOTZMOYER NEWVILLE PA 368 33 M 9 30-34 1 1:38:12.04 7:30/M
57 JEFFREY HARRIS ENOLA PA 292 44 M 9 40-44 1 1:38:26.27 7:31/M
58 DAVID HOWEY ETTERS PA 325 69 M 1 65-99 1 1:38:26.98 7:31/M
59 ABBY ROWE BALTIMORE MD 550 32 F 4 30-34 1 1:38:35.24 7:32/M
60 GLENDON CARPER RISING SUN MD 135 41 M 10 40-44 1 1:38:49.32 7:33/M
61 MOLLY SMATHERS CHAMBERSBURG PA 600 31 F 5 30-34 1 1:39:02.18 7:34/M
62 THOMAS EBERHART 810 55 M 2 55-59 1 1:39:09.88 7:34/M
63 CRAIG TIMOTHY 779 49 M 8 45-49 1 1:39:13.02 7:34/M
64 VINCE RADIC JR HARRISBURG PA 524 54 M 6 50-54 1 1:39:19.27 7:35/M
65 ADAM DRAKE MECHANICSBURG PA 200 38 M 10 35-39 1 1:39:21.92 7:35/M
66 JUSTIN HIRST ELIZABETHTOWN PA 316 36 M 11 35-39 1 1:39:23.72 7:35/M
67 JULIE BURNER 780 48 F 1 45-49 1 1:39:24.17 7:35/M
68 MOLLY ZANGRILLI PAOLI PA 718 39 F 3 35-39 1 1:39:33.58 7:36/M
69 RITRIEVI RORI 775 53 M 7 50-54 1 1:39:38.78 7:36/M
70 ERIC WEBB HARRISBURG PA 683 43 M 11 40-44 1 1:40:01.59 7:38/M
71 BRAD NASON MONTOURSVILLE PA 476 62 M 1 60-64 1 1:40:07.11 7:39/M
72 COURTNEY HARDING HUMMELSTOWN PA 290 26 F 4 25-29 1 1:40:14.42 7:39/M
73 LARRY ARIAS HAZLETON PA 46 31 M 10 30-34 1 1:40:32.84 7:40/M
74 CASSIDY MOORE NEW CUMBERLAND PA 456 23 F 1 20-24 1 1:40:38.26 7:41/M
75 MADUSON NESTOR PITTSBURGH PA 480 27 F 5 25-29 1 1:40:39.89 7:41/M
76 JACOB SHARICK PITTSBURGH PA 583 27 M 7 25-29 1 1:40:44.99 7:41/M
77 BRENDA SMOKER NEW HOLLAND PA 609 29 F 6 25-29 1 1:40:50.92 7:42/M
78 MICHAEL VARZALY WILKES BARRE PA 662 44 M 12 40-44 1 1:40:53.33 7:42/M
79 MIKE MCCAULEY MECHANICSBURG PA 425 52 M 8 50-54 1 1:40:59.39 7:43/M
80 KATE SERTOSS 822 33 F 6 30-34 1 1:41:14.55 7:44/M
81 NICOLETTE BELL ENOLA PA 82 36 F 4 35-39 1 1:41:31.80 7:45/M
82 BRADLEY YEHL ELIZABETHTOWN PA 714 25 M 8 25-29 1 1:42:03.89 7:47/M
83 BRANDON HALL STEWARTSTOWN PA 283 35 M 12 35-39 1 1:42:12.90 7:48/M
84 HOLLY BOHENSKY MILLERSTOWN PA 75 42 F 1 40-44 1 1:42:14.75 7:48/M
85 JEFF STEINHOFF FELTON PA 627 46 M 9 45-49 1 1:42:20.44 7:49/M
86 DAVID WILLOW MECHANICSBURG PA 703 48 M 10 45-49 1 1:42:22.01 7:49/M
87 LINDSAY PRIDGEN MECHANICSBURG PA 522 25 F 7 25-29 1 1:42:30.48 7:49/M
88 JAMES WEAVER MECHANICSBURG PA 680 43 M 13 40-44 1 1:42:31.43 7:50/M
89 DAN KOZAR CENTRE HALL PA 369 20 M 1 20-24 1 1:42:42.00 7:50/M
90 MARK KLEIN FREDERICK MD 361 55 M 3 55-59 1 1:43:13.47 7:53/M
91 AMY WHITMOYER CHAMBERSBURG PA 692 35 F 5 35-39 1 1:43:40.17 7:55/M
92 ZACHARY ASPER SHIPPENSBURG PA 50 36 M 13 35-39 1 1:43:41.03 7:55/M
93 MARTY WEIS 814 55 M 4 55-59 1 1:43:41.11 7:55/M
94 JOHN WELLIVER DANVILLE PA 687 43 M 14 40-44 1 1:43:41.27 7:55/M
95 RYAN DEWS HARRISBURG PA 190 43 M 15 40-44 1 1:43:50.91 7:56/M
96 NATE PIGOTT MECHANICSBURG PA 514 39 M 14 35-39 1 1:43:53.01 7:56/M
97 LISA SCHAEFER HARRISBURG PA 561 35 F 6 35-39 1 1:43:54.42 7:56/M
98 NATALIE NUTT HUMMELSTOWN PA 488 42 F 2 40-44 1 1:43:57.84 7:56/M
99 ALEX HARDING HUMMELSTOWN PA 289 27 M 9 25-29 1 1:44:18.35 7:58/M
100 JOHN PECK BRIELLE NJ 505 45 M 11 45-49 1 1:44:38.35 7:59/M
 
Place Name City Bib No Age Gender Age Group Div Total Time Pace
101 MITCHELL MILLER LANCASTER PA 443 52 M 9 50-54 1 1:44:39.52 7:59/M
102 ROBERT RYDER LIVERPOOL PA 551 45 M 12 45-49 1 1:44:41.27 7:59/M
103 ANTHONY ARTHUR 811 30 M 11 30-34 1 1:44:48.91 8:00/M
104 KATHERINE SHANK CAMP HILL PA 582 55 F 1 55-59 1 1:44:49.86 8:00/M
105 NICK SABO AA MD 552 30 M 12 30-34 1 1:44:58.01 8:01/M
106 JEREMY RIVERS MECHANICSBURG PA 539 25 M 10 25-29 1 1:45:01.06 8:01/M
107 MATTHEW CLARK RESTON VA 150 33 M 13 30-34 1 1:45:11.41 8:02/M
108 GLEN STOOK BLOOMSBURG PA 635 41 M 16 40-44 1 1:45:24.20 8:03/M
109 ANGELA KELLY HARRISBURG PA 348 27 F 8 25-29 1 1:45:24.86 8:03/M
110 BETH SEITZ HUMMELSTOWN PA 576 44 F 3 40-44 1 1:45:31.32 8:03/M
111 LORI BRULO HARRISBURG PA 120 57 F 2 55-59 1 1:45:36.76 8:04/M
112 SUNNI SNYDER NORTHUMBERLAND PA 613 37 F 7 35-39 1 1:45:56.51 8:05/M
113 LANIEL VAZQUEZ 786 35 M 15 35-39 1 1:46:08.67 8:06/M
114 AMANDA TEMPLETON SINKING SPRING PA 644 39 F 8 35-39 1 1:46:10.19 8:06/M
115 RUSSELL HIDDEMEN HARRISBURG PA 309 25 M 11 25-29 1 1:46:10.67 8:06/M
116 JANELLE MECK ARDMORE PA 436 30 F 7 30-34 1 1:46:13.82 8:06/M
117 FERNANDA AMARANTE 777 32 F 8 30-34 1 1:46:17.74 8:07/M
118 ALLEN HIPPLE NEW BLOOMFIELD PA 315 68 M 2 65-99 1 1:46:20.15 8:07/M
119 KERRY JOHNSON MECHANICSBURG PA 332 38 F 9 35-39 1 1:46:34.59 8:08/M
120 NICHOLAS PERRY MECHANICSBURG PA 509 21 M 2 20-24 1 1:46:42.78 8:09/M
121 HILARY RADIC HARRISBURG PA 523 25 F 9 25-29 1 1:46:50.33 8:09/M
122 MICHAEL CAGULADA RESEDA CA 124 40 M 17 40-44 1 1:46:54.58 8:10/M
123 TIFFANY SCHELL MIDDLETOWN PA 565 31 F 9 30-34 1 1:46:57.54 8:10/M
124 DON FULLER MECHANICSBURG PA 243 47 M 13 45-49 1 1:46:59.19 8:10/M
125 ANGELA HAGENBACH 826 42 F 4 40-44 1 1:47:03.24 8:10/M
126 JOHN WAGNER HUMMELSTOWN PA 671 53 M 10 50-54 1 1:47:05.64 8:10/M
127 ALFRED SMITH CHAMBERSBURG PA 602 50 M 11 50-54 1 1:47:32.67 8:13/M
128 BENJAMIN WOLF MECHANICSBURG PA 708 25 M 12 25-29 1 1:47:36.80 8:13/M
129 JAMES BLOOM PITTSBURGH PA 98 37 M 16 35-39 1 1:47:39.05 8:13/M
130 JOSH WILLIAMS ENOLA PA 696 27 M 13 25-29 1 1:47:41.42 8:13/M
131 JUSTIN KIEFFER HUMMELSTOWN PA 352 28 M 14 25-29 1 1:47:57.53 8:14/M
132 ALAN MULINDWA COLUMBIA MD 470 44 M 18 40-44 1 1:48:00.89 8:15/M
133 SARAH FARRANT BOALSBURG PA 218 45 F 1 45-49 1 1:48:03.75 8:15/M
134 BENJAMIN SCHLOSSER MOUNT JOY PA 568 31 M 14 30-34 1 1:48:12.36 8:16/M
135 AMY ANDERSON MECHANICSBURG PA 44 34 F 10 30-34 1 1:48:19.60 8:16/M
136 JODI LYONS GETTYSBURG PA 408 41 F 5 40-44 1 1:48:23.64 8:16/M
137 LARRY WOLF JR DILLSBURG PA 710 51 M 12 50-54 1 1:48:27.93 8:17/M
138 JASON DREIBELBIS MILLERSBURG PA 201 44 M 19 40-44 1 1:48:34.56 8:17/M
139 TONY BISTLINE MARIETTA PA 94 42 M 20 40-44 1 1:48:37.77 8:17/M
140 ANDREW ENDERS 807 33 M 15 30-34 1 1:48:44.78 8:18/M
141 KATIE LARSEN SHIPPENSBURG PA 383 26 F 10 25-29 1 1:48:44.96 8:18/M
142 BARRY GARNER MANHEIM PA 257 40 M 21 40-44 1 1:48:48.31 8:18/M
143 ARMAND MEYER YORK PA 439 69 M 3 65-99 1 1:48:49.66 8:18/M
144 STEVE ANDERSON 809 36 M 17 35-39 1 1:48:57.91 8:19/M
145 JAMIE CAUDILL ORRSTOWN PA 140 45 M 14 45-49 1 1:48:58.24 8:19/M
146 LISA OGURCAK READING PA 493 47 F 2 45-49 1 1:48:58.81 8:19/M
147 STEPHEN MYERS CARLISLE PA 474 44 M 22 40-44 1 1:49:02.02 8:19/M
148 LIZ HILL HARRISBURG PA 312 28 F 11 25-29 1 1:49:04.25 8:20/M
149 MICHELE FISHER BEDFORD PA 233 50 F 1 50-54 1 1:49:09.55 8:20/M
150 JEFFREY SEYFRIED HUMMELSTOWN PA 578 49 M 15 45-49 1 1:49:09.57 8:20/M
151 BRIAN SIEMBIEDA CAMP HILL PA 594 31 M 16 30-34 1 1:49:11.67 8:20/M
152 JOHN FISHER LEBANON PA 231 65 M 4 65-99 1 1:49:14.31 8:20/M
153 BRYANN BINGAMAN WILLIAMSPORTIAMSPORT PA 91 27 M 15 25-29 1 1:49:21.74 8:21/M
154 KATE KORNUCIK CARLISLE PA 366 35 F 10 35-39 1 1:49:23.84 8:21/M
155 MARCI WOLF DILLSBURG PA 709 50 F 2 50-54 1 1:49:25.91 8:21/M
156 EMILY SLABONIK HARRISBURG PA 598 24 F 2 20-24 1 1:49:32.29 8:22/M
157 CHLOE FEALTMAN CARLISLE PA 223 20 F 3 20-24 1 1:49:34.90 8:22/M
158 LAURA JACOBS 328 30 F 11 30-34 1 1:49:36.94 8:22/M
159 BILL SHEIBLEY 795 54 M 13 50-54 1 1:49:37.23 8:22/M
160 LUKE JACOBS 820 52 M 14 50-54 1 1:49:40.52 8:22/M
161 AARON CUTARELLI MANHEIM PA 170 27 M 16 25-29 1 1:49:52.04 8:23/M
162 RACHEL SHADE MILLERSBURG PA 579 25 F 12 25-29 1 1:50:05.41 8:24/M
163 RANDY WHITAKER HARRISBURG PA 690 57 M 5 55-59 1 1:50:15.43 8:25/M
164 MICHELLE CHUFE LESLIE CAMP HILL PA 147 39 F 11 35-39 1 1:50:20.49 8:25/M
165 TRICIA DONLEY MARYSVILLE PA 197 26 F 13 25-29 1 1:50:24.40 8:26/M
166 JEFF PALADINA NEW CUMBERLAND PA 497 45 M 16 45-49 1 1:50:27.09 8:26/M
167 DAVID CHILDRESS MECHANICSBURG PA 146 47 M 17 45-49 1 1:50:41.25 8:27/M
168 JAY MORGAN BLOOMINGTON IN 457 56 M 6 55-59 1 1:50:50.26 8:28/M
169 CHRISTEN BELL PORT MATILDA PA 80 29 F 14 25-29 1 1:51:13.03 8:29/M
170 MANDY BRIGAMAN NEW CUMBERLAND PA 117 41 F 6 40-44 1 1:51:22.14 8:30/M
171 BRIAN LEWIS MIDDLETOWN PA 400 26 M 17 25-29 1 1:51:32.02 8:31/M
172 RICH HEILMAN YORK PA 300 40 M 23 40-44 1 1:51:44.96 8:32/M
173 MEREDITH GOLDEN DILLSBURG PA 269 36 F 12 35-39 1 1:52:01.55 8:33/M
174 NICOLE CARRAN YOUNG MECHANICSBURG PA 136 27 F 15 25-29 1 1:52:12.54 8:34/M
175 JENNIFER GERHART MECHANICSBURG PA 263 46 F 3 45-49 1 1:52:15.93 8:34/M
176 SHELLEY HEASLEY MIDDLEBURG PA 299 54 F 3 50-54 1 1:52:42.72 8:36/M
177 JOANNE MANGANELLO HARRISBURG PA 415 36 F 13 35-39 1 1:52:47.47 8:37/M
178 BARRY LONG LEWISBURG PA 403 44 M 24 40-44 1 1:52:50.42 8:37/M
179 CHRIS CAPEWELL MECHANICSBURG PA 134 40 M 25 40-44 1 1:52:52.22 8:37/M
180 REGINA WILLIS HUMMELSTOWN PA 701 30 F 12 30-34 1 1:53:01.37 8:38/M
181 KARL GRIFFITH GLENVILLE NY 278 59 M 7 55-59 1 1:53:13.63 8:39/M
182 KIM KING HANOVER PA 356 43 F 7 40-44 1 1:53:20.42 8:39/M
183 MANIKANDA PRABU LAKSHMANAN MECHANICSBURG PA 377 32 M 17 30-34 1 1:53:21.26 8:39/M
184 EMILY BANCROFT ELIZABETHTOWN PA 62 26 F 16 25-29 1 1:53:26.10 8:40/M
185 NATHAN SANKARALINGAM PARSIPPANY NJ 557 40 M 26 40-44 1 1:53:34.70 8:40/M
186 JEFF BRUBAKER 825 29 M 18 25-29 1 1:53:38.05 8:40/M
187 THOMAS RARICK 803 43 M 27 40-44 1 1:53:39.32 8:41/M
188 SARA JAMIESON HARRISBURG PA 329 34 F 13 30-34 1 1:53:47.51 8:41/M
189 KAREN GOOD GRANTVILLE PA 271 57 F 3 55-59 1 1:53:47.68 8:41/M
190 KERI MCPARTLAND HARRISBURG PA 433 34 F 14 30-34 1 1:53:48.17 8:41/M
191 VICTOR VAN ZIJL DE JONG PHILADELPHIA PA 660 36 M 18 35-39 1 1:53:49.98 8:41/M
192 KEVIN WILLETT NEW CUMBERLAND PA 695 45 M 18 45-49 1 1:54:04.69 8:42/M
193 ELLEN BRANDAU RESTON VA 111 32 F 15 30-34 1 1:54:08.98 8:43/M
194 HEIDI TYRRELL NEWBURYPORT MA 656 41 F 8 40-44 1 1:54:09.04 8:43/M
195 MELANIE GILLMAN HUMMELSTOWN PA 266 33 F 16 30-34 1 1:54:10.41 8:43/M
196 BRIDGET CASHER NEW CUMBERLAND PA 138 34 F 17 30-34 1 1:54:18.55 8:44/M
197 SALENA HERBINKO MECHANICSBURG PA 303 42 F 9 40-44 1 1:54:26.08 8:44/M
198 MATTHEW EVANS NASHVILLE TN 216 36 M 19 35-39 1 1:54:27.71 8:44/M
199 THOMAS BINKLEY SOUTH WILLIAMSPORT PA 93 50 M 15 50-54 1 1:54:28.48 8:44/M
200 TRACI STRUNGIS MOUNTAINTOP PA 639 48 F 4 45-49 1 1:54:28.59 8:44/M
 
Place Name City Bib No Age Gender Age Group Div Total Time Pace
201 DAVID HELSTER DAUPHIN PA 301 49 M 19 45-49 1 1:54:30.32 8:44/M
202 NEIDA LAU YORK PA 388 55 F 4 55-59 1 1:54:34.61 8:45/M
203 JEFF ROBERTSON HUMMELSTOWN PA 540 40 M 28 40-44 1 1:54:36.54 8:45/M
204 ERIK LARSON CAMP HILL PA 384 37 M 20 35-39 1 1:54:39.70 8:45/M
205 DENISE CABRAL CARLISLE PA 123 44 F 10 40-44 1 1:54:42.70 8:45/M
206 JOSHUA GREENBERG BALTIMORE MD 275 43 M 29 40-44 1 1:54:43.27 8:45/M
207 JOE EBERT CARLISLE PA 211 56 M 8 55-59 1 1:54:43.63 8:45/M
208 BRIAN DEAL HANOVER PA 181 44 M 30 40-44 1 1:54:48.47 8:46/M
209 ERICH MAJORS HARRISBURG PA 413 29 M 19 25-29 1 1:55:09.74 8:47/M
210 JONATHAN CROFT HUMMELSTOWN PA 165 32 M 18 30-34 1 1:55:18.05 8:48/M
211 PAUL LATHAM HUMMELSTOWN PA 386 39 M 21 35-39 1 1:55:19.97 8:48/M
212 FRANK GENTILE HUMMELSTOWN PA 261 50 M 16 50-54 1 1:55:35.06 8:49/M
213 STEVE FEALTMAN CARLISLE PA 224 55 M 9 55-59 1 1:55:42.38 8:50/M
214 AMY BOMBERGER LITITZ PA 101 29 F 17 25-29 1 1:55:43.51 8:50/M
215 JUAN ACEVEDO LEWISBERRY PA 35 28 M 20 25-29 1 1:55:50.23 8:51/M
216 BENJAMIN FAUSEY MIFFLIN PA 220 48 M 20 45-49 1 1:56:02.63 8:51/M
217 DAN DILLOW NEW CUMBERLAND PA 193 34 M 19 30-34 1 1:56:03.94 8:52/M
218 TIM LEESE VALLEY VIEW PA 394 39 M 22 35-39 1 1:56:09.83 8:52/M
219 TAYLOR DAILY PHILADELPHIA PA 172 26 M 21 25-29 1 1:56:12.22 8:52/M
220 KELLY DOTTERGER 817 46 F 5 45-49 1 1:56:19.41 8:53/M
221 MARK RITZMAN MILLERSTOWN PA 538 56 M 10 55-59 1 1:56:23.45 8:53/M
222 FRANK CRUPI MECHANICSBURG PA 167 65 M 5 65-99 1 1:56:23.85 8:53/M
223 ERIN TULLY HARRISBURG PA 652 23 F 4 20-24 1 1:56:24.83 8:53/M
224 EVELYN WYNN MONTOURSVILLE PA 713 30 F 18 30-34 1 1:56:25.28 8:53/M
225 JEFF DAVIDSON BOALSBURG PA 176 56 M 11 55-59 1 1:56:27.95 8:53/M
226 BRETT KEHLER ELIZABETHTOWN PA 344 40 M 31 40-44 1 1:56:28.40 8:53/M
227 KATIE WILLIAMS MECHANICSBURG PA 698 32 F 19 30-34 1 1:56:28.79 8:53/M
228 MAGGIE FUTATO MECHANICSBURG PA 246 35 F 14 35-39 1 1:56:28.85 8:53/M
229 MIKE FOREMAN CARLISLE PA 238 50 M 17 50-54 1 1:56:33.43 8:54/M
230 SHERMAN BELL HARRISBURG PA 83 51 M 18 50-54 1 1:56:42.34 8:55/M
231 ED HOFFMAN BERWICK PA 318 62 M 2 60-64 1 1:56:47.93 8:55/M
232 MATTHEW DEIBLER MOUNT JOY PA 185 23 M 3 20-24 1 1:56:56.04 8:56/M
233 HECTOR BAEZ HARRISBURG PA 56 53 M 19 50-54 1 1:56:59.72 8:56/M
234 TABI KLEESE MECHANICSBURG PA 360 35 F 15 35-39 1 1:57:04.32 8:56/M
235 BELINDA HELTZEL DILLSBURG PA 302 39 F 16 35-39 1 1:57:04.64 8:56/M
236 ANDREA HOPPENJANS HARRISBURG PA 323 36 F 17 35-39 1 1:57:05.82 8:56/M
237 SHELDON LEONARD MECHANICSBURG PA 398 42 M 32 40-44 1 1:57:11.41 8:57/M
238 SHELBIE GILBERT DORNSIFE PA 265 29 F 18 25-29 1 1:57:13.69 8:57/M
239 CHUCK CRISCIONE ETTERS PA 162 46 M 21 45-49 1 1:57:17.43 8:57/M
240 JASON LANE CAMP HILL PA 380 41 M 33 40-44 1 1:57:17.89 8:57/M
241 TEISHA EISMANN HUMMELSTOWN PA 215 42 F 11 40-44 1 1:57:30.98 8:58/M
242 CORBY WEAVER BELLEFONTE PA 679 37 M 23 35-39 1 1:57:31.61 8:58/M
243 SHAUNA POWERS MECHANICSBURG PA 520 36 M 24 35-39 1 1:57:40.87 8:59/M
244 LISA SIMMERS YORK HAVEN PA 595 47 F 6 45-49 1 1:57:45.17 8:59/M
245 DENISE MAUZ NEW CUMBERLAND PA 422 62 F 1 60-64 1 1:57:48.37 9:00/M
246 CHRIS BARRICK BOILING SPRINGS PA 69 29 M 22 25-29 1 1:58:02.74 9:01/M
247 ANDREW RUTHERFORD 808 32 M 20 30-34 1 1:58:03.14 9:01/M
248 STEPHANIE CANAL NEW CUMBERLAND PA 130 39 F 18 35-39 1 1:58:04.42 9:01/M
249 RICHARD CANAL NEW CUMBERLAND PA 129 39 M 25 35-39 1 1:58:04.66 9:01/M
250 JORDAN MORSBERGER GREAT MILLS MD 462 28 M 23 25-29 1 1:58:05.56 9:01/M
251 JASON LAWRENCE HANOVER PA 390 33 M 21 30-34 1 1:58:06.56 9:01/M
252 JAY STATES HARRISBURG PA 624 46 M 22 45-49 1 1:58:07.77 9:01/M
253 FRANK TOWNSEND ANNVILLE PA 648 48 M 23 45-49 1 1:58:10.56 9:01/M
254 PAUL KEMP PHILADELPHIA PA 350 36 M 26 35-39 1 1:58:11.47 9:01/M
255 TERESA STEWART JONESTOWN PA 632 36 F 19 35-39 1 1:58:12.02 9:01/M
256 JOSHUA SPELAS BURNHAM PA 618 28 M 24 25-29 1 1:58:13.24 9:01/M
257 ADDISON LAUVER HARRISBURG PA 389 24 F 5 20-24 1 1:58:15.52 9:02/M
258 KIM HALL STEWARTSTOWN PA 285 35 F 20 35-39 1 1:58:23.95 9:02/M
259 CURT WICKARD CARLISLE PA 693 48 M 24 45-49 1 1:58:26.12 9:02/M
260 DORIE MINICH CARLISLE PA 448 39 F 21 35-39 1 1:58:26.65 9:02/M
261 HEATHER SPENCE HARRISBURG PA 619 39 F 22 35-39 1 1:58:36.69 9:03/M
262 KIT CONNER HARRISBURG PA 158 59 M 12 55-59 1 1:58:38.44 9:03/M
263 STEVE LYNCH DUNCANNON PA 407 59 M 13 55-59 1 1:58:43.37 9:04/M
264 AMANDA SATTAZAHN HARRISBURG PA 558 38 F 23 35-39 1 1:58:44.23 9:04/M
265 JAMIE SHINN MORGANTOWN WV 587 35 F 24 35-39 1 1:58:44.56 9:04/M
266 KRISTY WELDON MECHANICSBURG PA 686 41 F 12 40-44 1 1:58:49.13 9:04/M
267 KRISTEN KNICKMAN LIVERPOOL PA 363 35 F 25 35-39 1 1:58:50.59 9:04/M
268 APPLE BURTON 797 13 F 1 1-19 1 1:58:54.32 9:05/M
269 MICHAEL WOMELSDORF ETTERS PA 711 31 M 22 30-34 1 1:59:09.83 9:06/M
270 ERIC HOFFER HARRISBURG PA 317 35 M 27 35-39 1 1:59:22.17 9:07/M
271 JACK MOSCONY YORK PA 463 60 M 3 60-64 1 1:59:28.33 9:07/M
272 STAN CUSTER 805 58 M 14 55-59 1 1:59:28.73 9:07/M
273 MARNI MICEK CAMP HILL PA 441 47 F 7 45-49 1 1:59:29.97 9:07/M
274 LAURA CAUDILL SHIPPENSBURG PA 141 24 F 6 20-24 1 1:59:36.21 9:08/M
275 KATIE CALPIN HARRISBURG PA 125 39 F 26 35-39 1 1:59:44.22 9:08/M
276 LEANNA BELL WARSAW VA 81 27 F 19 25-29 1 1:59:44.77 9:08/M
277 AMY STERLING MANCHESTER PA 629 40 F 13 40-44 1 1:59:45.49 9:08/M
278 LINDSAY GABERS LITITZ PA 248 31 F 20 30-34 1 1:59:50.43 9:09/M
279 HANNAH SCHEIBELER LITITZ PA 564 24 F 7 20-24 1 1:59:52.19 9:09/M
280 RACHEL NEWHOOK LITITZ PA 481 26 F 20 25-29 1 1:59:53.39 9:09/M
281 DAVE LEBO NEW CUMBERLAND PA 392 59 M 15 55-59 1 1:59:54.23 9:09/M
282 GRETCHEN GARLAND HARRISBURG PA 256 25 F 21 25-29 1 2:00:17.39 9:11/M
283 RAGAN MOSLEY HIGHSPIRE PA 465 40 M 34 40-44 1 2:00:20.13 9:11/M
284 SAMANTHA WILLIAMSON MANCHESTER PA 700 28 F 22 25-29 1 2:00:20.78 9:11/M
285 BRIAN WILSON KREAMER PA 704 47 M 25 45-49 1 2:00:35.68 9:12/M
286 BETTE KOZLOWSKI WAYNE PA 370 58 F 5 55-59 1 2:00:49.77 9:13/M
287 ELIZABETH GRAYBILL CAMP HILL PA 274 29 F 23 25-29 1 2:00:51.15 9:14/M
288 DONNA VASILOFF NEW CUMBERLAND PA 663 43 F 14 40-44 1 2:00:56.81 9:14/M
289 BOBBI SEYFERT JONESTOWN PA 577 44 F 15 40-44 1 2:01:01.15 9:14/M
290 TIMOTHY PALMER CARLISLE PA 499 49 M 26 45-49 1 2:01:06.14 9:15/M
291 TREVOR SPENCER 794 37 M 28 35-39 1 2:01:09.20 9:15/M
292 JOSEPH GASIEWSKI MECHANICSBURG PA 259 30 M 23 30-34 1 2:01:16.04 9:15/M
293 KATHRYN NEWTON MECHANICSBURG PA 483 46 F 8 45-49 1 2:01:33.13 9:17/M
294 JACK MOLITORIS HARRISBURG PA 451 61 M 4 60-64 1 2:01:36.66 9:17/M
295 LIZ HERRING MECHANICSBURG PA 304 23 F 8 20-24 1 2:01:40.75 9:17/M
296 LISA STOKES HARRISBURG PA 634 56 F 6 55-59 1 2:01:41.91 9:17/M
297 GARRETT DERR MOUNT JOY PA 188 27 M 25 25-29 1 2:01:57.91 9:19/M
298 JENNIFER TRUSKEY 778 51 F 4 50-54 1 2:01:58.62 9:19/M
299 ERICH CARROLL LANCASTER PA 137 23 M 4 20-24 1 2:01:59.42 9:19/M
300 KATHRYN TARTAGLIA ENOLA PA 643 31 F 21 30-34 1 2:02:00.14 9:19/M
 
Place Name City Bib No Age Gender Age Group Div Total Time Pace
301 MYINE PALMER CARLISLE PA 498 34 F 22 30-34 1 2:02:02.89 9:19/M
302 APRIL WARIHAY MANHEIM PA 677 37 F 27 35-39 1 2:02:04.96 9:19/M
303 SARAVANA AYYAVUSELVI PARSIPPANY NJ 53 37 M 29 35-39 1 2:02:09.94 9:19/M
304 BOB SMITH BOILING SPRINGS PA 603 51 M 20 50-54 1 2:02:13.78 9:20/M
305 CATHERINE DEGUIRE LANCASTER PA 184 41 F 16 40-44 1 2:02:17.42 9:20/M
306 MICHELE MORGAN ANNVILLE PA 458 38 F 28 35-39 1 2:02:25.63 9:21/M
307 AMY BERDANIER HARRISBURG PA 87 25 F 24 25-29 1 2:02:30.59 9:21/M
308 DAVID HICKEY CHESTER SPRINGS PA 308 44 M 35 40-44 1 2:02:35.11 9:21/M
309 KIMBERLY BOYD DOWNINGTOWN PA 109 27 F 25 25-29 1 2:02:36.53 9:22/M
310 PATRICIA VARGAS ASTORIA NY 661 40 F 17 40-44 1 2:02:50.24 9:23/M
311 CHRISTINE WILLETT NEW CUMBERLAND PA 694 46 F 9 45-49 1 2:03:00.66 9:23/M
312 JIM LARKIN HARRISBURG PA 382 53 M 21 50-54 1 2:03:17.39 9:25/M
313 BRIAN CAUDILL SHIPPENSBURGS PA 139 48 M 27 45-49 1 2:03:23.35 9:25/M
314 DONTAE GREENE YORK PA 277 30 M 24 30-34 1 2:03:25.39 9:25/M
315 TIM ZELLERS LANDISVILLE PA 725 53 M 22 50-54 1 2:03:31.15 9:26/M
316 EMILY ZELLERS LANDISVILLE PA 724 22 F 9 20-24 1 2:03:32.18 9:26/M
317 MARGIE HINKLE YORK PA 313 48 F 10 45-49 1 2:03:38.49 9:26/M
318 ASHLEY BANE GRANTVILLE PA 63 29 F 26 25-29 1 2:03:40.22 9:26/M
319 ABIGAIL TROSTLE MONTOURSVILLE PA 650 28 F 27 25-29 1 2:03:41.92 9:26/M
320 ROBYN BOWMAN HARRISBURG PA 108 57 F 7 55-59 1 2:03:46.06 9:27/M
321 SHELLY LATSHA MECHANICSBURG PA 387 50 F 5 50-54 1 2:04:09.83 9:29/M
322 REBECCA WEILER-TIMMINS HUMMELSTOWN PA 684 44 F 18 40-44 1 2:04:11.61 9:29/M
323 REBEKAH BRADY JONESTOWN PA 110 39 F 29 35-39 1 2:04:18.66 9:29/M
324 NICHOLE CLAAR NEW PARIS PA 148 32 F 23 30-34 1 2:04:22.24 9:30/M
325 KIM HASSINGER MIDDLEBURG PA 295 50 M 23 50-54 1 2:04:24.95 9:30/M
326 KYLE RETERSTOFF YORK PA 534 27 M 26 25-29 1 2:04:29.61 9:30/M
327 JASON OCOMA EAGLEVILLE PA 490 39 M 30 35-39 1 2:04:32.04 9:30/M
328 MICHELLE HOWE DILLSBURG PA 324 50 F 6 50-54 1 2:04:36.50 9:31/M
329 JAKE LANTZSCH CAMP HILL PA 381 36 M 31 35-39 1 2:04:38.78 9:31/M
330 CHERYL MAUCH CAMP HILL PA 421 27 F 28 25-29 1 2:04:39.08 9:31/M
331 KAITLIN SICA CAMP HILL PA 592 27 F 29 25-29 1 2:04:40.34 9:31/M
332 AMANDA FORD MILLERSTOWN PA 237 26 F 30 25-29 1 2:04:49.02 9:32/M
333 RYLEIGH FAUST LEWISBURG PA 221 14 F 2 1-19 1 2:05:15.60 9:34/M
334 STACY FAUST LEWISBURG PA 222 42 F 19 40-44 1 2:05:21.00 9:34/M
335 JASON MOSHIER ELIZABETHVILLE PA 464 41 M 36 40-44 1 2:05:32.85 9:35/M
336 DONALD DINGLE LEWISBURG PA 194 50 M 24 50-54 1 2:05:42.50 9:36/M
337 MIKE ROUTSONG II CAMP HILL PA 549 34 M 25 30-34 1 2:05:44.47 9:36/M
338 CHERYL MURPHY-SWEET MECHANICSBURG PA 473 50 F 7 50-54 1 2:06:07.12 9:38/M
339 KURT ZAREFOSS MIDDLETOWN MD 719 49 M 28 45-49 1 2:06:07.27 9:38/M
340 HEATHER SPAHR DILLSBURG PA 616 32 F 24 30-34 1 2:06:21.14 9:39/M
341 AMY MCKIERNAN MECHANICSBURG PA 432 35 F 30 35-39 1 2:06:36.73 9:40/M
342 CHARLES RICHEY MECHANICSBURG PA 536 30 M 26 30-34 1 2:06:44.45 9:40/M
343 JILL STAUFFER MECHANICSBURG PA 625 37 F 31 35-39 1 2:07:12.45 9:43/M
344 TRACY CLOUSER SHERMANS DALES PA 152 35 F 32 35-39 1 2:07:13.61 9:43/M
345 MEAGAN CRAVER SPRING GROVE PA 161 22 F 10 20-24 1 2:07:15.44 9:43/M
346 ERIK PETERSON HANOVER MD 511 50 M 25 50-54 1 2:07:19.79 9:43/M
347 ASHLEY REEVES MECHANICSBURG PA 530 21 F 11 20-24 1 2:07:33.49 9:44/M
348 JOHN KOSTICK PORT CARBON PA 367 47 M 29 45-49 1 2:07:42.55 9:45/M
349 CHRIS STEINER DRUMS PA 626 42 M 37 40-44 1 2:07:48.28 9:45/M
350 JOSHUA SNYDER BEDFORD PA 611 29 M 27 25-29 1 2:07:48.66 9:45/M
351 MATTHEW DELUCA BROOKLYN NY 187 31 M 27 30-34 1 2:07:53.98 9:46/M
352 DENNIS FIRESTONE PALMYRA PA 228 45 M 30 45-49 1 2:07:54.45 9:46/M
353 LINDA CRONISE FAIRPLAY MD 166 53 F 8 50-54 1 2:08:01.39 9:46/M
354 TURQUOISE PISTOR MIDDLETOWN PA 515 30 F 25 30-34 1 2:08:01.42 9:46/M
355 CHRISTY GANOE HARRISBURG PA 252 44 F 20 40-44 1 2:08:03.98 9:46/M
356 SHAWN SKETHWAY ELLIOTTSBURG PA 597 49 M 31 45-49 1 2:08:15.47 9:47/M
357 CHRISTOPHER JONES COAL TOWNSHIP PA 334 27 M 28 25-29 1 2:08:18.78 9:48/M
358 HEATHER KNISELY MECHANICSBURG PA 364 43 F 21 40-44 1 2:08:23.14 9:48/M
359 JACQUEE PRESCOTT HARRISBURG PA 521 48 F 11 45-49 1 2:08:27.35 9:48/M
360 GLENN SPINELB 812 0 M 1 0- 0 1 2:08:29.96 9:48/M
361 GLENYS VASQUEZ-BANCHON MECHANICSBURG PA 664 42 F 22 40-44 1 2:08:30.57 9:49/M
362 KELVIN BANCHON MECHANICSBURG PA 61 36 M 32 35-39 1 2:08:30.82 9:49/M
363 WENDI SUNDERLAND DILLSBURG PA 640 50 F 9 50-54 1 2:08:33.51 9:49/M
364 JILL TORQUATO MECHANICSBURG PA 647 40 F 23 40-44 1 2:08:34.69 9:49/M
365 MICHAEL TRAGESER PITTSBURGH PA 649 32 M 28 30-34 1 2:08:37.77 9:49/M
366 SHAWN THOMPSON HARRISBURG PA 646 48 M 32 45-49 1 2:08:40.02 9:49/M
367 MARK DAWES YORK HAVEN PA 180 52 M 26 50-54 1 2:08:41.65 9:49/M
368 BOB CAPEWELL HAVERTOWN PA 133 38 M 33 35-39 1 2:08:47.49 9:50/M
369 KRISTEN MIKULSKI MECHANICSBURG PA 442 38 F 33 35-39 1 2:08:51.24 9:50/M
370 JENNIFER GALLO DANVILLE PA 251 39 F 34 35-39 1 2:08:53.91 9:50/M
371 JOHN DORMUTH LEWISBERRY PA 199 46 M 33 45-49 1 2:08:54.12 9:50/M
372 KAITLIN CANFIELD ENOLA PA 132 28 F 31 25-29 1 2:08:54.30 9:50/M
373 KENNETH TALLMAN ENOLA PA 641 40 M 38 40-44 1 2:08:59.74 9:51/M
374 YVONNE HARE YORK PA 291 42 F 24 40-44 1 2:09:03.18 9:51/M
375 KATE BROWN MECHANICSBURG PA 118 33 F 26 30-34 1 2:09:09.31 9:52/M
376 KATIE MCFADDEN MECHANICSBURG PA 428 24 F 12 20-24 1 2:09:09.36 9:52/M
377 JACQUI DERR ICKESBURG PA 189 33 F 27 30-34 1 2:09:14.67 9:52/M
378 BRANDON HAGGARD FREDERICKSBURG VA 281 38 M 34 35-39 1 2:09:20.08 9:52/M
379 MIKE SALAMON PITTSBURGH PA 554 49 M 34 45-49 1 2:09:24.24 9:53/M
380 LEEMARIE FISHER CAMP HILL PA 232 43 F 25 40-44 1 2:09:47.47 9:54/M
381 KIMBERLY VAUGHAN CAMP HILL PA 665 31 F 28 30-34 1 2:09:50.14 9:55/M
382 REBECCA PEIFFER CAMP HILL PA 507 39 F 35 35-39 1 2:09:50.20 9:55/M
383 KRISTIN KELLUM HARRISBURG PA 347 27 F 32 25-29 1 2:10:00.67 9:55/M
384 AMANDA MILLS WEST CHESTER PA 447 21 F 13 20-24 1 2:10:01.68 9:55/M
385 MICHAEL RADLE HARRISBURG PA 525 36 M 35 35-39 1 2:10:06.80 9:56/M
386 APRIL HOPE MANDEVILLE-PALM MYERSTOWN PA 414 35 F 36 35-39 1 2:10:07.09 9:56/M
387 BETH BINGAMAN HARRISBURG PA 90 51 F 10 50-54 1 2:10:14.57 9:56/M
388 JANELLE BUSHONG ANNVILLE PA 122 40 F 26 40-44 1 2:10:23.46 9:57/M
389 RENEE BOGDAN MECHANICSBURG PA 100 33 F 29 30-34 1 2:10:23.58 9:57/M
390 AMY HILL HARRISBURG PA 310 45 F 12 45-49 1 2:10:28.76 9:58/M
391 DAVID GUO 783 65 M 6 65-99 1 2:10:36.02 9:58/M
392 MEGAN EARLEY 796 27 F 33 25-29 1 2:10:48.34 9:59/M
393 RICHIE DUNKELBERGER HEGINS PA 205 37 M 36 35-39 1 2:10:48.76 9:59/M
394 DAVID CZARNECKI CAMP HILL PA 171 43 M 39 40-44 1 2:11:03.56 10:00/M
395 BJ SMALL MECHANICSBURG PA 599 61 M 5 60-64 1 2:11:07.45 10:01/M
396 RICHARD MAY HARRISBURG PA 423 47 M 35 45-49 1 2:11:10.80 10:01/M
397 NATALIE FALATEK HALIFAX PA 217 37 F 37 35-39 1 2:11:49.24 10:04/M
398 AMBER NESTLER HALIFAX PA 478 32 F 30 30-34 1 2:11:51.99 10:04/M
399 JAMES HALL HARRISBURG PA 284 36 M 37 35-39 1 2:11:55.74 10:04/M
400 NINA BLASZKA DILLSBURG PA 96 26 F 34 25-29 1 2:11:56.38 10:04/M
 
Place Name City Bib No Age Gender Age Group Div Total Time Pace
401 JENNY NICOLOSI HUMMELSTOWN PA 485 26 F 35 25-29 1 2:11:59.10 10:05/M
402 BILL FITZMAURICE SURFSIDE BEACH SC 236 58 M 16 55-59 1 2:11:59.99 10:05/M
403 ASHLEY SNYDER BEDFORD PA 610 36 F 38 35-39 1 2:12:16.55 10:06/M
404 GINA CONNER ELYSBURG PA 157 38 F 39 35-39 1 2:12:17.14 10:06/M
405 M DUNHAM CARLISLE PA 203 46 F 13 45-49 1 2:12:18.11 10:06/M
406 TORI MILLER VALLEY VIEW PA 446 38 M 38 35-39 1 2:12:24.07 10:06/M
407 ALESHA SMITH YORK PA 601 35 F 40 35-39 1 2:12:28.99 10:07/M
408 BETHANY WILSTON ETTERS PA 705 51 F 11 50-54 1 2:12:32.67 10:07/M
409 JOSEPH LAKE 771 64 M 6 60-64 1 2:12:39.03 10:08/M
410 SEAN GRAHAM STATE COLLEGE PA 273 40 M 40 40-44 1 2:12:41.57 10:08/M
411 LAURA NAGY WEST CHESTER PA 475 28 F 36 25-29 1 2:12:44.95 10:08/M
412 CHERYL FRY DANVILLE PA 240 40 F 27 40-44 1 2:12:56.85 10:09/M
413 AMIE BANTZ HARRISBURG PA 64 23 F 14 20-24 1 2:13:20.93 10:11/M
414 SYDNEY KYLER 824 31 F 31 30-34 1 2:13:23.60 10:11/M
415 RACHEL BOUSCAREN BUDD LAKE NJ 105 21 F 15 20-24 1 2:13:29.20 10:11/M
416 JAIMEE BOWENS HARRISBURG PA 107 42 F 28 40-44 1 2:13:29.28 10:11/M
417 ELLEN DAVIS MECHANICSBURG PA 178 20 F 16 20-24 1 2:13:29.71 10:11/M
418 GRACE CHESTERS LANCASTER PA 145 26 F 37 25-29 1 2:13:46.81 10:13/M
419 JORDYN DONNELLY NEWVILLE PA 198 20 F 17 20-24 1 2:13:58.93 10:14/M
420 MARK SHERIFF NEWVILLE PA 585 21 M 5 20-24 1 2:13:59.15 10:14/M
421 MARY GENE EAGEN DUNMORE PA 208 49 F 14 45-49 1 2:14:04.39 10:14/M
422 ERIN CONNER HARRISBURG PA 156 52 F 12 50-54 1 2:14:04.84 10:14/M
423 TODD MILLER HARRISBURG PA 445 47 M 36 45-49 1 2:14:06.01 10:14/M
424 MAYURI KEALY HARRISBURG PA 343 33 F 32 30-34 1 2:14:14.45 10:15/M
425 LINDA BECK HARRISBURG PA 79 53 F 13 50-54 1 2:14:28.07 10:16/M
426 EMILY CLARKE FAIRFIELD PA 151 49 F 15 45-49 1 2:14:29.03 10:16/M
427 ANDREA YERGER ELIZABETHTOWN PA 715 38 F 41 35-39 1 2:14:31.11 10:16/M
428 JOANNA BARNHOUSE MECHANICSBURG PA 68 28 F 38 25-29 1 2:14:33.30 10:16/M
429 MARY FISHEL BALTIMORE MD 229 30 F 33 30-34 1 2:14:40.00 10:17/M
430 AMY MORRISON ETTERS PA 460 55 F 8 55-59 1 2:14:42.62 10:17/M
431 JENNIFER BRANSTETTER CAMP HILL PA 112 44 F 29 40-44 1 2:15:08.27 10:19/M
432 EMILY MARTZ DUNCANNON PA 420 25 F 39 25-29 1 2:15:12.24 10:19/M
433 HANNAH NICHOLS MACUNGIE PA 484 24 F 18 20-24 1 2:15:12.48 10:19/M
434 BECKY DAVIS MYERSTOWN PA 177 30 F 34 30-34 1 2:15:15.08 10:19/M
435 BEN GOLDMAN 815 41 M 41 40-44 1 2:15:20.68 10:20/M
436 KATELYN COLYER MECHANICSBURG PA 155 24 F 19 20-24 1 2:15:30.93 10:21/M
437 ANN MARIE FUTREL HARRISBURH PA 247 42 F 30 40-44 1 2:15:35.66 10:21/M
438 GINA BAKER MECHANICSBURG PA 58 42 F 31 40-44 1 2:15:50.12 10:22/M
439 TAWNYA BENSINGER MARYSVILLE PA 86 31 F 35 30-34 1 2:15:55.14 10:23/M
440 HOWARD FEINBERG DILLSBURG PA 226 51 M 27 50-54 1 2:16:00.67 10:23/M
441 DANA DITTON HERSHEY PA 196 36 F 42 35-39 1 2:16:07.98 10:23/M
442 ANN KINCH HARRISBURG PA 355 59 F 9 55-59 1 2:16:16.57 10:24/M
443 ENRIQUETA MCKENNA HARRISBURG PA 431 49 F 16 45-49 1 2:16:21.45 10:25/M
444 BRODY GARDNER GARDNERS PA 253 13 M 1 1-19 1 2:16:28.50 10:25/M
445 DAWN O'NEILL HARRISBURG PA 495 36 F 43 35-39 1 2:16:32.02 10:25/M
446 JESSICA WALTMAN CARLISLE PA 675 25 F 40 25-29 1 2:16:32.30 10:25/M
447 JUANITA GARDNER GARDNERS PA 254 41 F 32 40-44 1 2:16:39.73 10:26/M
448 MARY OLIVEIRA ENOLA PA 494 46 F 17 45-49 1 2:16:50.56 10:27/M
449 BRIAN POLENSKY MECHANICSBURG PA 516 42 M 42 40-44 1 2:16:55.14 10:27/M
450 JARON PARKER WATSONTOWN PA 500 34 M 29 30-34 1 2:17:07.87 10:28/M
451 JOSEPH NUNLEY HARRISBURG PA 487 33 M 30 30-34 1 2:17:08.61 10:28/M
452 GEOFFREY WHITE CRANBERRY TWP PA 691 38 M 39 35-39 1 2:17:09.59 10:28/M
453 RODNEY KRAMER YORK PA 373 58 M 17 55-59 1 2:17:11.68 10:28/M
454 DEANNA MULLER HUMMELSTOWN PA 471 51 F 14 50-54 1 2:17:27.35 10:30/M
455 MATTHEW SHUPP SHIPPENSBURG PA 590 40 M 43 40-44 1 2:17:27.45 10:30/M
456 LAUREN AZZARELLI 801 29 F 41 25-29 1 2:17:29.57 10:30/M
457 CHRYSTALL JENKINS EASTON PA 330 31 F 36 30-34 1 2:17:45.01 10:31/M
458 EMILY ZELGER RED LION PA 722 23 F 20 20-24 1 2:18:02.02 10:32/M
459 LINDSAY BEYLER LEBANON PA 89 36 F 44 35-39 1 2:18:17.23 10:33/M
460 SHARNAE STEVENS KING OF PRUSSIA PA 630 28 F 42 25-29 1 2:18:42.93 10:35/M
461 KELLY LEAMAN ELIZABETHTOWN PA 391 31 F 37 30-34 1 2:18:44.57 10:35/M
462 CHARLES FISHER CARLISLE PA 230 43 M 44 40-44 1 2:18:52.00 10:36/M
463 ROBERT MUHLHAUSER ENOLA PA 469 49 M 37 45-49 1 2:18:55.18 10:36/M
464 MORGAN GOODLING CARLISLE PA 272 35 F 45 35-39 1 2:18:59.70 10:37/M
465 ANGELA COULOUMBIS CAMP HILL PA 159 45 F 18 45-49 1 2:19:20.48 10:38/M
466 MARIA KILMARTIN HALIFAX PA 354 25 F 43 25-29 1 2:19:22.85 10:38/M
467 ALYSSA PEIFFER CAMP HILL PA 506 16 F 3 1-19 1 2:19:27.11 10:39/M
468 DIANE MORRIS BOILING SPRINGS PA 459 63 F 2 60-64 1 2:19:35.55 10:39/M
469 BRANDI GIPE MYERSTOWN PA 268 35 F 46 35-39 1 2:19:36.73 10:39/M
470 DOUG DIETRICH HARRISBURG PA 191 48 M 38 45-49 1 2:19:38.25 10:40/M
471 NICK BECHTEL DRUMS PA 78 29 M 29 25-29 1 2:19:39.76 10:40/M
472 KRISTIN CUNNINGHAM BALTIMORE MD 169 33 F 38 30-34 1 2:19:40.37 10:40/M
473 JONATHAN HOKE MYERSTOWN PA 319 42 M 45 40-44 1 2:19:40.50 10:40/M
474 DOREEN MCCALL HARRISBURG PA 424 49 F 19 45-49 3 2:20:03.70 10:41/M
475 DENISE FILSON MECHANICSBURG PA 735 52 F 15 50-54 3 2:20:10.45 10:42/M
476 JUDY SMITH MECHANICSBURG PA 605 35 F 47 35-39 1 2:20:20.70 10:43/M
477 JANELLE SOSTAR MIDDLETOWN PA 614 34 F 39 30-34 1 2:20:42.67 10:44/M
478 JAMIE FIORENZA ETTERS PA 227 43 F 33 40-44 1 2:20:51.50 10:45/M
479 MADALYN WALTERS PORT ROYAL PA 674 18 F 4 1-19 1 2:20:57.98 10:46/M
480 JANE BLOCK HARRISBURG PA 97 26 F 44 25-29 1 2:21:05.45 10:46/M
481 LINDSEY WALMER BETHLEHEM PA 672 32 F 40 30-34 1 2:21:22.60 10:47/M
482 BRIAN HAIR SHIPPENSBURG PA 282 59 M 18 55-59 1 2:21:24.27 10:48/M
483 ELAINE DUENAS-BROWN LEBANON PA 202 41 F 34 40-44 1 2:21:32.90 10:48/M
484 DANIELLE GASTON LEHIGHTON PA 260 39 F 48 35-39 1 2:21:35.63 10:48/M
485 MIKE STRINGENT CAMP HILL PA 638 54 M 28 50-54 1 2:21:44.68 10:49/M
486 SALLY JOHNSON NEW CUMBERLAND PA 333 41 F 35 40-44 1 2:21:45.60 10:49/M
487 SANGKOOK LEE MECHANICSBURG PA 393 43 M 46 40-44 1 2:21:58.71 10:50/M
488 MARCELLA KEHLER NEW CUMBERLAND PA 345 43 F 36 40-44 1 2:22:06.84 10:51/M
489 TRISTAN PHILBROOK YORK PA 513 34 F 41 30-34 1 2:22:13.96 10:51/M
490 REBECCA FULMER POTTSTOWN PA 244 24 F 21 20-24 1 2:22:28.78 10:53/M
491 ASHLEY CARE 799 30 F 42 30-34 1 2:22:33.24 10:53/M
492 TIMOTHY KAMINSKY HARRISBURG PA 340 33 M 31 30-34 1 2:22:45.64 10:54/M
493 LINH BUI PHOENIXVILLE PA 121 50 F 16 50-54 1 2:22:46.39 10:54/M
494 JERED TYLER BLOOMSBURG PA 655 23 M 6 20-24 1 2:22:47.49 10:54/M
495 JULIE SHOWALTER ALUM BANK PA 588 26 F 45 25-29 1 2:22:50.96 10:54/M
496 JOHN ALLEN CARLISLE PA 43 33 M 32 30-34 1 2:22:56.99 10:55/M
497 KELLY SMITH HUMMELSTOWN PA 606 45 F 20 45-49 1 2:22:59.21 10:55/M
498 ERIC ARNOLD 813 49 M 39 45-49 1 2:23:06.03 10:55/M
499 BOBBY EISMANN HUMMELSTOWN PA 214 39 M 40 35-39 1 2:23:06.37 10:55/M
500 KAREN WEINSTEIN CARLISLE PA 685 48 F 21 45-49 1 2:23:06.95 10:55/M
 
Place Name City Bib No Age Gender Age Group Div Total Time Pace
501 MIKE ROMBERGER HARRISBURG PA 546 48 M 40 45-49 1 2:23:20.85 10:56/M
502 LINDSEY MENGLE CAMP HILL PA 437 32 F 43 30-34 1 2:23:39.24 10:58/M
503 ANDREW DINUNZIO PALMYRA PA 195 47 M 41 45-49 1 2:23:41.79 10:58/M
504 FRANCIS JURCIK MECHANICSBURG PA 337 35 M 41 35-39 1 2:24:03.81 11:00/M
505 REBECCA PARKER WATSONTOWN PA 501 30 F 44 30-34 1 2:24:04.29 11:00/M
506 JEFFREY BRENT HARRISBURG PA 114 56 M 19 55-59 1 2:24:19.94 11:01/M
507 GINA DAVIS ETTERS PA 179 30 F 45 30-34 1 2:24:26.73 11:02/M
508 D.GEORGE MCGRAW HARRISBURG PA 430 72 M 7 65-99 1 2:24:27.86 11:02/M
509 KAREN HENDRICKS 772 48 F 22 45-49 1 2:24:37.43 11:02/M
510 SAM SNYDER HARRISBURG PA 612 27 F 46 25-29 1 2:24:54.40 11:04/M
511 KARLA HALLER MECHANICSBURG PA 286 38 F 49 35-39 1 2:25:24.84 11:06/M
512 JEN MOWERY MECHANICSBURG PA 466 34 F 46 30-34 1 2:25:49.02 11:08/M
513 DANIELLE MARKLE NEW FREEDOM PA 418 34 F 47 30-34 1 2:25:53.56 11:08/M
514 DARRELL BEVEL HARRISBURG PA 88 48 M 42 45-49 1 2:26:07.99 11:09/M
515 LEEANN OSHELL YORK PA 496 44 F 37 40-44 1 2:26:23.04 11:10/M
516 AMY KEICH ALLENTOWN PA 346 42 F 38 40-44 1 2:26:27.64 11:11/M
517 SAMANTHA GERBERICH LEBANON PA 262 30 F 48 30-34 1 2:26:36.04 11:11/M
518 ALAN NOBLE 774 54 M 29 50-54 1 2:26:41.27 11:12/M
519 ROSANNY REYES 804 24 F 22 20-24 1 2:26:42.68 11:12/M
520 KRISTEN HANN MECHANICSBURG PA 288 26 F 47 25-29 1 2:26:46.44 11:12/M
521 CONNIE FULLENLOVE MYERSTOWN PA 242 51 F 17 50-54 1 2:26:50.94 11:13/M
522 MELANIE NELSON LEBANON PA 477 48 F 23 45-49 1 2:26:51.04 11:13/M
523 CAROLINA BAEZ HARRISBURG PA 55 50 F 18 50-54 1 2:26:53.41 11:13/M
524 HALEY NESTOR LYKENS PA 479 20 F 23 20-24 1 2:26:54.21 11:13/M
525 BETH MUHLHAUSER ENOLA PA 468 48 F 24 45-49 1 2:26:55.37 11:13/M
526 SANDY KIBLER BELLWOOD PA 351 53 F 19 50-54 1 2:27:12.33 11:14/M
527 MARY CRAVEN YORK PA 160 39 F 50 35-39 1 2:27:15.32 11:14/M
528 MEGAN MOHL LEBANON PA 450 28 F 48 25-29 1 2:27:17.52 11:15/M
529 JEAN MARIE HOLMAN BARNESVILLE PA 321 47 F 25 45-49 1 2:27:31.09 11:16/M
530 CHRISTOPHER YOKIMCUS MOUNTAIN TOP PA 716 22 M 7 20-24 1 2:27:31.22 11:16/M
531 CATHY UTZ MOUNT WOLF PA 657 52 F 20 50-54 1 2:27:37.37 11:16/M
532 JOHN ADAMS MECHANICSBURG PA 38 48 M 43 45-49 1 2:27:38.02 11:16/M
533 LINDA ARMSTRONG CAMP HILL PA 49 68 F 1 65-99 1 2:27:38.41 11:16/M
534 PRAVEEN CHARLES MECHANICSBURG PA 143 43 M 47 40-44 1 2:27:49.97 11:17/M
535 AMY GREENE HARRISBURG PA 276 44 F 39 40-44 1 2:27:59.07 11:18/M
536 ERIC TUTTLE HARRISBURGARRISBURG PA 654 33 M 33 30-34 1 2:28:00.87 11:18/M
537 NATE SANDERS HARRISBURG PA 556 48 M 44 45-49 1 2:28:14.60 11:19/M
538 WENDY CAMASTA LEBANON PA 126 50 F 21 50-54 1 2:28:25.69 11:20/M
539 KATHARYN KRAEMER MECHANICSBURG PA 371 57 F 10 55-59 1 2:28:26.58 11:20/M
540 IAN SCOTT DILLSBURG PA 573 35 M 42 35-39 1 2:28:31.04 11:20/M
541 GREG SPINELLO LEWISBURG PA 620 55 M 20 55-59 1 2:28:36.09 11:21/M
542 CAROLYN GARISTO LEWISBURG PA 255 47 F 26 45-49 1 2:28:36.32 11:21/M
543 KATE CHESCATTIE CAMP HILL PA 144 43 F 40 40-44 1 2:28:39.18 11:21/M
544 MEL GOOCH HARRISBURG PA 270 57 F 11 55-59 1 2:28:50.54 11:22/M
545 JAMES ROCHE CAPE MAY COURT HOUSE NJ 543 23 M 8 20-24 1 2:28:51.07 11:22/M
546 GABRIELLE SCOTT HARRISBURG PA 572 23 F 24 20-24 1 2:28:51.71 11:22/M
547 TAMMY MOOMAW CARLISLE PA 454 46 F 27 45-49 1 2:28:53.59 11:22/M
548 TERESA MOOMAW NEWVILLE PA 455 56 F 12 55-59 1 2:28:53.90 11:22/M
549 CATHERINE KASLUSKY MECHANICSBURG PA 341 38 F 51 35-39 1 2:28:56.71 11:22/M
550 MARY REBER HARRISBURG PA 528 40 F 41 40-44 1 2:28:56.95 11:22/M
551 GRETCHEN RICHARDSON HUMMELSTOWN PA 535 40 F 42 40-44 1 2:28:57.12 11:22/M
552 JEREMY FUNK MECHANICSBURG PA 245 43 M 48 40-44 1 2:29:06.83 11:23/M
553 MEGAN AUGUSTINE HARRISBURG PA 52 34 F 49 30-34 1 2:29:09.87 11:23/M
554 STACY MILLER VALLEY VIEW PA 444 42 F 43 40-44 1 2:29:23.19 11:24/M
555 MARY SMITH HARRISBURG PA 607 53 F 22 50-54 1 2:29:26.94 11:24/M
556 MICHAEL NOTT HARRISBURG PA 486 46 M 45 45-49 1 2:29:26.95 11:24/M
557 RACHEL TAMBLING MANSFIELD CENTER CT 642 36 F 52 35-39 1 2:29:34.41 11:25/M
558 LAURIE CULKIN BALTIMORE MD 168 25 F 49 25-29 1 2:29:49.61 11:26/M
559 REBECCA SCHROM IRVING TX 571 27 F 50 25-29 3 2:30:15.98 11:28/M
560 JEAN-PAUL BENOWITZ HARRISBURG PA 85 48 M 46 45-49 1 2:30:25.99 11:29/M
561 JENEVE STAMBAUGH CAMP HILL PA 622 39 F 53 35-39 1 2:30:54.76 11:31/M
562 MARI GIORDANO PALMYRA PA 267 51 F 23 50-54 1 2:31:02.25 11:32/M
563 JULIA HOKE CAMP HILL PA 320 39 F 54 35-39 1 2:31:08.92 11:32/M
564 SHANI SCHALLES MECHANICSBURG PA 563 47 F 28 45-49 1 2:31:26.55 11:34/M
565 TAMMY SMITH MECHANICSBURG PA 608 48 F 29 45-49 1 2:31:27.17 11:34/M
566 BRAD COLWELL CAMP HILL PA 154 68 M 8 65-99 1 2:31:28.82 11:34/M
567 CAROLYN DUNKELBERGER HEGINS PA 204 37 F 55 35-39 1 2:31:29.00 11:34/M
568 JOAN SEIDEL FLEETWOOD PA 575 54 F 24 50-54 1 2:31:34.49 11:34/M
569 JOHN ROMAN HARRISBURG PA 753 48 M 47 45-49 3 2:31:48.74 11:35/M
570 AMANDA EILERS HERSHEY PA 213 28 F 51 25-29 1 2:31:50.28 11:35/M
571 DANIEL KROVICH CAMP HILL PA 374 47 M 48 45-49 1 2:32:15.06 11:37/M
572 DOUGLAS HILL HARRISBURG PA 311 63 M 7 60-64 1 2:33:42.47 11:44/M
573 BILL FEINBERG CLINTON CT 225 49 M 49 45-49 1 2:33:59.96 11:45/M
574 MELISSA DILLMAN CONNELLSVILLE PA 192 45 F 30 45-49 1 2:34:05.51 11:46/M
575 KYLE WEAVER HUMMELSTOWN PA 682 31 M 34 30-34 1 2:34:08.90 11:46/M
576 CHRISTINA BEAVERSON YORK PA 77 39 F 56 35-39 1 2:34:09.75 11:46/M
577 LISA HASSINGER MIDDLEBURG PA 296 50 F 25 50-54 1 2:34:12.82 11:46/M
578 MARIAH LANDIS LANCASTER PA 378 26 F 52 25-29 3 2:34:13.34 11:46/M
579 CHRISTINE FARLING 784 51 F 26 50-54 1 2:34:29.70 11:48/M
580 ALEECIA MOYER YORK PA 467 39 F 57 35-39 1 2:34:51.69 11:49/M
581 KAREN WEAVER LEHIGHTON PA 681 45 F 31 45-49 1 2:34:53.63 11:49/M
582 CARA HAUSER PITTSBURGH PA 297 34 F 50 30-34 1 2:34:59.54 11:50/M
583 WILLIAM PETERS HARRISBURG PA 510 45 M 50 45-49 1 2:35:01.73 11:50/M
584 ROLAND ACEVEDO ABBOTTSTOWN PA 36 49 M 51 45-49 1 2:35:12.81 11:51/M
585 LESLIE MARSHALL CAMP HILL PA 419 39 F 58 35-39 1 2:35:13.60 11:51/M
586 MARY MURPHY LEWISBERRY PA 748 55 F 13 55-59 1 2:35:26.07 11:52/M
587 INGRID KALB NEWBURG PA 338 41 F 44 40-44 1 2:35:28.32 11:52/M
588 SARAH SHUPP SHIPPENSBURG PA 591 33 F 51 30-34 1 2:35:53.43 11:54/M
589 AMY BOYCE 769 35 F 59 35-39 1 2:36:23.02 11:56/M
590 HARRIS BOYCE 768 36 M 43 35-39 1 2:36:23.86 11:56/M
591 MARYANN FUREDI 781 45 F 32 45-49 1 2:37:00.38 11:59/M
592 BOBBI JOHNSON DUNCANNON PA 331 51 F 27 50-54 1 2:37:02.06 11:59/M
593 CAITLIN BOND GETTYSBURG PA 102 31 F 52 30-34 1 2:37:09.38 12:00/M
594 ALLISON RAY MECHANICSBURG PA 527 39 F 60 35-39 1 2:37:14.09 12:00/M
595 KAREN PATTERSON HARRISBURG PA 502 52 F 28 50-54 1 2:37:21.61 12:01/M
596 DINA ADAMS NEW PHILADELPHIA PA 37 53 F 29 50-54 1 2:37:37.53 12:02/M
597 SHERI BAKER NEW CUMBERLAND PA 59 45 F 33 45-49 1 2:37:54.91 12:03/M
598 TOM EARLEY MECHANICSBURG PA 210 56 M 21 55-59 1 2:38:17.50 12:05/M
599 ERIC AUGUSTINE HARRISBURG PA 51 52 M 30 50-54 1 2:38:39.13 12:07/M
600 JAMES CAMPBELL BLAIRSVILLE PA 127 22 M 9 20-24 1 2:38:47.58 12:07/M
 
Place Name City Bib No Age Gender Age Group Div Total Time Pace
601 ALYSSA VONDRAS CAMP HILL PA 669 21 F 25 20-24 1 2:38:48.18 12:07/M
602 WANDA PEATROSS DOVERR PA 504 50 F 30 50-54 1 2:39:01.39 12:08/M
603 TONIA LUKENS NEWPORT PA 406 46 F 34 45-49 1 2:39:40.96 12:11/M
604 JESSE MERTZ LANCASTER PA 438 31 M 35 30-34 1 2:39:43.43 12:12/M
605 NOELLE BARNES HOLLIDAYSBURG PA 67 47 F 35 45-49 1 2:39:44.22 12:12/M
606 SHERRIE YUREJEFCIC LEBANON PA 717 57 F 14 55-59 1 2:39:46.21 12:12/M
607 HEATHER LAWLESS 770 0 F 1 0- 0 1 2:40:03.74 12:13/M
608 JENNIFER WOLAVER CARLISLE PA 707 37 F 61 35-39 1 2:40:09.29 12:14/M
609 JOHN CERMINARA HARRISBURG PA 142 26 M 30 25-29 1 2:40:22.96 12:15/M
610 KIM SPRADLEY NEW CUMBERLAND PA 621 56 F 15 55-59 1 2:40:26.16 12:15/M
611 SHALLYN LELAND NEW CUMBERLAND PA 397 40 F 45 40-44 1 2:40:56.71 12:17/M
612 DAVID BOTERO ENOLA PA 104 40 M 49 40-44 1 2:41:01.56 12:17/M
613 KATIE GRADY 800 32 F 53 30-34 1 2:41:22.63 12:19/M
614 SUSIE MCGEOY POTTSVILLE PA 429 60 F 3 60-64 1 2:41:22.86 12:19/M
615 WILLIAM BENNER NEWPORT PA 84 52 M 31 50-54 1 2:41:35.07 12:20/M
616 MARK BAYER HARRISBURG PA 73 55 M 22 55-59 1 2:41:38.22 12:20/M
617 ALLISON MIONE HARRISBURG PA 449 27 F 53 25-29 3 2:43:07.22 12:27/M
618 ALESIA BARRON CAMP HILL PA 70 23 F 26 20-24 1 2:43:10.39 12:27/M
619 DAN WERODAN 802 37 M 44 35-39 1 2:43:19.36 12:28/M
620 DAVID ARK HARRISBURG PA 47 56 M 23 55-59 1 2:43:41.55 12:30/M
621 JENNIFER EDMISTON HARRISBURG PA 212 34 F 54 30-34 1 2:43:41.75 12:30/M
622 MELISSA ARK HARRISBURG PA 48 57 F 16 55-59 1 2:43:42.19 12:30/M
623 TONIA KELSO CARLISLE PA 349 39 F 62 35-39 1 2:43:51.08 12:30/M
624 LEVI ROBINSON HARRISBURG PA 541 36 M 45 35-39 1 2:44:15.51 12:32/M
625 ASHLEY BRICKER DAUPHIN PA 115 31 F 55 30-34 1 2:45:16.10 12:37/M
626 JENNIFER DUSART MECHANICSBURG PA 207 42 F 46 40-44 1 2:45:17.46 12:37/M
627 ROBERT REISCH HARRISBURG PA 532 63 M 8 60-64 1 2:46:26.95 12:42/M
628 MEGAN LEISTER MECHANICSBURG PA 396 23 F 27 20-24 1 2:46:58.91 12:45/M
629 JUDY STANK ETTERS PA 623 61 F 4 60-64 1 2:47:18.52 12:46/M
630 KIMBERLY WILLIAMS DUNCANNON PA 699 48 F 36 45-49 1 2:47:32.23 12:47/M
631 JESSICA PETERSON-SHATTO NEWBURG PA 512 34 F 56 30-34 1 2:47:33.02 12:47/M
632 TINA CANCEL BOILING SPRINGS PA 131 37 F 63 35-39 1 2:48:03.38 12:50/M
633 KEVIN BROWN 806 60 M 9 60-64 1 2:48:15.50 12:51/M
634 AMY BITNER CARLISLE PA 95 49 F 37 45-49 3 2:48:23.47 12:51/M
635 CHERIE LANE CAMP HILL PA 379 44 F 47 40-44 1 2:49:38.28 12:57/M
636 COLLEEN KNUTSEN PALMYRA PA 365 52 F 31 50-54 1 2:52:19.02 13:09/M
637 SANDRA VALENCIA LEBANON PA 658 64 F 5 60-64 1 2:52:19.39 13:09/M
638 SUZANNE SCHLAGER YORK PA 567 58 F 17 55-59 1 2:52:43.36 13:11/M
639 SARAH WALSH ELIZABETHTOWN PA 673 36 F 64 35-39 3 2:53:01.65 13:12/M
640 SUADA KATIC SHIPPENSBURG PA 342 42 F 48 40-44 1 2:53:03.36 13:13/M
641 LINDA STEWART ENOLA PA 631 61 F 6 60-64 1 2:53:23.35 13:14/M
642 NICHOLAS MACCHIA ORCHARD PARK NY 409 49 M 52 45-49 1 2:53:35.21 13:15/M
643 MATTHEW ADAMS ELIZABETHTOWN PA 39 47 M 53 45-49 1 2:54:36.71 13:20/M
644 SARITA KINNEY 793 49 F 38 45-49 1 2:54:47.52 13:21/M
645 KAREN EARLEY MECHANICSBURG PA 209 55 F 18 55-59 1 2:55:51.87 13:25/M
646 DANIELLE SCARINGI HARRISBURG PA 560 41 F 49 40-44 1 2:55:52.01 13:25/M
647 BRAD SANTANNA 776 38 M 46 35-39 1 2:55:53.45 13:26/M
648 RHONDA GIDDINGS HARRISBURG PA 264 50 F 32 50-54 1 2:56:16.70 13:27/M
649 BARBARA NICOLETTE SELINSGROVE PA 750 46 F 39 45-49 3 2:56:59.34 13:31/M
650 MERCINE ROSS 785 46 F 40 45-49 1 2:57:42.88 13:34/M
651 SARAH LONG TOMS RIVER NJ 404 21 F 28 20-24 1 2:57:45.13 13:34/M
652 ABIGAIL THOMPSON YORK PA 645 33 F 57 30-34 1 2:57:55.97 13:35/M
653 BARBARA BACIOR NEW CUMBERLAND PA 54 56 F 19 55-59 1 3:00:13.37 13:45/M
654 G MICHAEL GRANT 787 0 M 2 0- 0 3 3:00:47.31 13:48/M
655 KRISTIN LOVE NORRISTOWN PA 405 51 F 33 50-54 1 3:01:40.09 13:52/M
656 RAND WARSAW MONROEVILLE PA 678 62 M 10 60-64 1 3:02:09.60 13:54/M
657 JEAN ZIMMERMAN MECHANICSBURG PA 767 66 F 2 65-99 3 3:02:50.12 13:57/M
658 MARIANNE GERBERT DILLSBURG PA 736 57 F 20 55-59 3 3:03:21.11 14:00/M
659 KIMBERLY MINCEMOYER DILLSBURG PA 747 48 F 41 45-49 3 3:03:21.60 14:00/M
660 MARLENE STEINOUR MECHANICSBURG PA 761 59 F 21 55-59 3 3:04:42.20 14:06/M
661 KENDRA STOUTZENBERGER YORK PA 636 30 F 58 30-34 1 3:04:59.61 14:07/M
662 SUE MILLER SINKING SPRING PA 746 48 F 42 45-49 3 3:05:01.10 14:07/M
663 CASANDRA REIFSNYDER ENOLA PA 531 35 F 65 35-39 1 3:05:10.53 14:08/M
664 KAITLYN BLOSSER NASHVILLE TN 99 24 F 29 20-24 1 3:05:37.08 14:10/M
665 COURTNEY BAILEY HARRISBURG PA 57 26 F 54 25-29 3 3:06:09.48 14:13/M
666 LORI GUTIERREZ HARRISBURG PA 737 55 F 22 55-59 3 3:07:20.46 14:18/M
667 BRUCE SPEIR DOVER PA 617 49 M 54 45-49 3 3:13:19.95 14:45/M
668 ALEXIS POLLACK CAMP HILL PA 517 50 F 34 50-54 1 3:14:24.45 14:50/M
669 JIMMY LIGHTFOOT MECHANICSBURG PA 744 36 M 47 35-39 3 3:14:49.25 14:52/M
670 CHRISTOPHER SATTELE PALMYRA PA 559 39 M 48 35-39 3 3:16:20.18 14:59/M
671 MATT DALEY HARRISBURG PA 173 32 M 36 30-34 1 3:22:52.35 15:29/M
672 TRISH TURO MECHANICSBURG PA 653 27 F 55 25-29 1 3:23:04.03 15:30/M
673 SCHARON BALL LANHAM MD 60 55 F 23 55-59 3 3:25:03.66 15:39/M
674 BRIAN LINTON HARRISBURG PA 401 47 M 55 45-49 1 3:25:38.46 15:42/M
675 BEVERLY MAGDA HARRISBURG PA 411 47 F 43 45-49 3 3:26:34.18 15:46/M
676 CATHY STANK MECHANICSBURG PA 759 62 F 7 60-64 3 3:30:17.41 16:03/M
677 MARY STANK HARRISBURG PA 760 57 F 24 55-59 3 3:30:17.62 16:03/M
678 DAN KEATING SILVER SPRING MD 739 55 M 24 55-59 3 3:31:43.26 16:10/M
679 TRACY KEATING SILVER SPRING MD 740 54 F 35 50-54 3 3:31:43.72 16:10/M
680 REBECCA BINGAMAN MIDDLEBURG PA 92 50 F 36 50-54 3 3:32:35.84 16:14/M
681 HEATHER ALTLAND DILLSBURG PA 726 36 F 66 35-39 3 3:36:01.33 16:29/M
682 SUSAN ORRIS NEW CUMBERLAND PA 751 51 F 37 50-54 3 3:37:01.85 16:34/M
683 MARJY SCHUBAUER-HARTMAN MECHANICSBURG PA 755 51 F 38 50-54 3 3:37:02.30 16:34/M
684 DEB SCHROCK CAMP HILL PA 754 56 F 25 55-59 3 3:37:02.85 16:34/M
685 MICHELLE SCOTT DILLSBURG PA 574 35 F 67 35-39 3 3:38:31.56 16:41/M
686 STEPHANIE HOPPLE 791 32 F 59 30-34 3 3:39:50.66 16:47/M
687 HANNAH LANDVATER HERSHEY PA 742 22 F 30 20-24 3 3:40:24.15 16:49/M
688 KRIS LANDVATER HERSHEY PA 743 50 F 39 50-54 3 3:40:24.74 16:49/M
689 TRISHA ZAREFOSS MIDDLETOWN MD 720 47 F 44 45-49 3 3:40:27.79 16:50/M
690 TRACY BAKER MARYSVILLE PA 729 46 F 45 45-49 3 3:42:31.74 16:59/M
691 DAN TRUITT WEST CHESTER PA 763 48 M 56 45-49 3 3:42:31.93 16:59/M
692 DANA BROUGHTON HARRISBURG PA 731 43 F 50 40-44 3 3:51:13.28 17:39/M
693 JENNIE HESS WILLIAMSPORT PA 305 21 F 31 20-24 3 3:51:15.74 17:39/M
694 DEBORAH AUCOIN HARRISBURG PA 727 48 F 46 45-49 3 3:51:42.73 17:41/M
695 AMY ZIMMERMAN MECHANICSBURG PA 766 38 F 68 35-39 3 3:53:25.64 17:49/M
696 CYNTHIA WEMER MECHANICSBURG PA 765 46 F 47 45-49 3 3:53:25.64 17:49/M
697 THOMAS HRDINA RIDGEWOOD NJ 738 66 M 9 65-99 3 3:55:51.95 18:00/M
698 MARY SCOTT YORK PA 757 69 F 3 65-99 3 4:01:45.68 18:27/M
699 BRAD SCOTT YORK PA 756 69 M 10 65-99 3 4:01:47.58 18:27/M
700 WENDY WILLIS COLUMBIA NC 702 59 F 26 55-59 1 4:03:13.78 18:34/M
 
Place Name City Bib No Age Gender Age Group Div Total Time Pace
701 DIANE DAVIS HARRISBURG PA 734 72 M 11 65-99 3 4:14:51.55 19:27/M
702 LAURA BROUGHTON HARRISBURG PA 732 17 F 5 1-19 3 4:15:02.55 19:28/M
703 HALEIGH AUCOIN HARRISBURG PA 728 17 F 6 1-19 3 4:15:02.56 19:28/M
704 ZOIE BROUGHTON HARRISBURG PA 733 15 F 7 1-19 3 4:15:05.31 19:28/M